Va Bene — ZCIP8 — position and weather

sailwx.info

Track history (hours):
 
Tides and Currents Weather Stations Pressure Air Temp Water Temp Dewpoint Dewpoint Depression Visibility Wind Speed Wind Dir Waves Ship Positions

Va Bene

Last reported at 2016-Sep-19 11:33 UTC. Time now 2016-Sep-25 03:47 UTC.
Position N 43°33' E 007°01'.

; draft 3.6 m.

Type: Pleasure craft. MMSI: 319854000.

Date/timePositionNaut miles runAvg speedWind from/ knotsBaromVisibWave heightAir tempDewpointWater temp
2016-Sep-19 11:33N 43°33' E 007°01'  
2016-Sep-16 15:22N 43°33' E 007°01'0 0.0
2016-Sep-16 03:16N 43°33' E 007°01'0 0.0
2016-Sep-16 02:22N 43°33' E 007°01'0 0.0
2016-Sep-16 00:25N 43°33' E 007°01'0 0.0
2016-Sep-15 22:25N 43°33' E 007°01'0 0.0
2016-Sep-15 21:28N 43°33' E 007°01'0 0.0
2016-Sep-15 20:28N 43°33' E 007°01'0 0.0
2016-Sep-15 18:28N 43°33' E 007°01'0 0.1
2016-Sep-15 12:33N 43°33' E 007°01'5 5.3
2016-Sep-15 11:34N 43°31' E 007°08'44 1.2
2016-Sep-13 22:08N 43°53' E 008°01'0 0.0
2016-Sep-13 20:26N 43°53' E 008°01'0 0.0
2016-Sep-13 18:32N 43°53' E 008°01'0 0.0
2016-Sep-13 17:32N 43°53' E 008°01'0 0.0
2016-Sep-13 16:29N 43°53' E 008°01'0 0.0
2016-Sep-13 11:32N 43°53' E 008°01'0 0.0
2016-Sep-13 09:26N 43°53' E 008°01'48 1.8
2016-Sep-12 07:33N 43°32' E 007°02'0 0.0
2016-Sep-12 06:30N 43°32' E 007°02'0 0.0
2016-Sep-12 03:30N 43°32' E 007°02'0 0.0
2016-Sep-12 01:33N 43°32' E 007°02'0 0.0
2016-Sep-11 23:33N 43°32' E 007°02'0 0.0
2016-Sep-11 22:33N 43°32' E 007°02'0 0.0
2016-Sep-11 21:30N 43°32' E 007°02'0 0.0
2016-Sep-11 20:24N 43°32' E 007°02'0 0.0
2016-Sep-11 19:30N 43°32' E 007°02'0 0.0
2016-Sep-11 18:30N 43°32' E 007°02'0 0.0
2016-Sep-11 17:30N 43°32' E 007°02'0 0.0
2016-Sep-11 16:30N 43°32' E 007°02'0 0.0
2016-Sep-11 15:30N 43°32' E 007°02'0 0.0
2016-Sep-11 14:27N 43°32' E 007°02'0 0.0
2016-Sep-11 13:33N 43°32' E 007°02'0 0.0
2016-Sep-11 12:33N 43°32' E 007°02'0 0.0
2016-Sep-11 11:33N 43°32' E 007°02'0 0.0
2016-Sep-11 08:33N 43°32' E 007°02'0 0.0
2016-Sep-11 07:33N 43°32' E 007°02'0 0.0
2016-Sep-11 03:27N 43°32' E 007°02'0 0.0
2016-Sep-11 02:30N 43°32' E 007°02'0 0.0
2016-Sep-11 01:30N 43°32' E 007°02'0 0.0
2016-Sep-11 00:30N 43°32' E 007°02'0 0.0
2016-Sep-10 23:33N 43°32' E 007°02'0 0.0
2016-Sep-10 22:33N 43°32' E 007°02'0 0.0
2016-Sep-10 21:33N 43°32' E 007°02'0 0.0
2016-Sep-10 20:33N 43°32' E 007°02'0 0.0
2016-Sep-10 19:21N 43°32' E 007°02'0 0.0
2016-Sep-10 18:33N 43°32' E 007°02'0 0.0
2016-Sep-10 17:33N 43°32' E 007°02'0 0.0
2016-Sep-10 16:24N 43°32' E 007°02'0 0.0
2016-Sep-10 15:27N 43°32' E 007°02'0 0.0
2016-Sep-10 14:27N 43°32' E 007°02'0 0.0
2016-Sep-10 13:27N 43°32' E 007°02'0 0.0
2016-Sep-10 12:30N 43°32' E 007°02'0 0.0
2016-Sep-10 11:15N 43°32' E 007°02'0 0.0
2016-Sep-10 10:30N 43°32' E 007°02'0 0.0
2016-Sep-10 09:33N 43°32' E 007°02'0 0.0
2016-Sep-10 08:33N 43°32' E 007°02'0 0.0
2016-Sep-10 07:33N 43°32' E 007°02'0 0.0
2016-Sep-10 06:33N 43°32' E 007°02'0 0.0
2016-Sep-10 03:30N 43°32' E 007°02'0 0.0
2016-Sep-10 00:24N 43°32' E 007°02'0 0.0
2016-Sep-09 23:27N 43°32' E 007°02'0 0.0
2016-Sep-09 22:30N 43°32' E 007°02'0 0.0
2016-Sep-09 21:30N 43°32' E 007°02'0 0.0
2016-Sep-09 20:30N 43°32' E 007°02'0 0.0
2016-Sep-09 19:33N 43°32' E 007°02'0 0.0
2016-Sep-09 18:33N 43°32' E 007°02'0 0.0
2016-Sep-09 17:33N 43°32' E 007°02'0 0.0
2016-Sep-09 16:33N 43°32' E 007°02'0 0.0
2016-Sep-09 15:33N 43°32' E 007°02'0 0.0
2016-Sep-09 14:33N 43°32' E 007°02'0 0.0
2016-Sep-09 13:33N 43°32' E 007°02'0 0.0
2016-Sep-09 12:30N 43°32' E 007°02'  
Track history (hours):
 
Tides and Currents Weather Stations Pressure Air Temp Water Temp Dewpoint Dewpoint Depression Visibility Wind Speed Wind Dir Waves Ship Positions

Va Bene

Last reported at 2016-Sep-19 11:33 UTC. Time now 2016-Sep-25 03:47 UTC.
Position N 43°33' E 007°01'.

; draft 3.6 m.

Type: Pleasure craft. MMSI: 319854000.

Date/timePositionNaut miles runAvg speedWind from/ knotsBaromVisibWave heightAir tempDewpointWater temp
2016-Sep-19 11:33N 43°33' E 007°01'  
2016-Sep-16 15:22N 43°33' E 007°01'0 0.0
2016-Sep-16 03:16N 43°33' E 007°01'0 0.0
2016-Sep-16 02:22N 43°33' E 007°01'0 0.0
2016-Sep-16 00:25N 43°33' E 007°01'0 0.0
2016-Sep-15 22:25N 43°33' E 007°01'0 0.0
2016-Sep-15 21:28N 43°33' E 007°01'0 0.0
2016-Sep-15 20:28N 43°33' E 007°01'0 0.0
2016-Sep-15 18:28N 43°33' E 007°01'0 0.1
2016-Sep-15 12:33N 43°33' E 007°01'5 5.3
2016-Sep-15 11:34N 43°31' E 007°08'44 1.2
2016-Sep-13 22:08N 43°53' E 008°01'0 0.0
2016-Sep-13 20:26N 43°53' E 008°01'0 0.0
2016-Sep-13 18:32N 43°53' E 008°01'0 0.0
2016-Sep-13 17:32N 43°53' E 008°01'0 0.0
2016-Sep-13 16:29N 43°53' E 008°01'0 0.0
2016-Sep-13 11:32N 43°53' E 008°01'0 0.0
2016-Sep-13 09:26N 43°53' E 008°01'48 1.8
2016-Sep-12 07:33N 43°32' E 007°02'0 0.0
2016-Sep-12 06:30N 43°32' E 007°02'0 0.0
2016-Sep-12 03:30N 43°32' E 007°02'0 0.0
2016-Sep-12 01:33N 43°32' E 007°02'0 0.0
2016-Sep-11 23:33N 43°32' E 007°02'0 0.0
2016-Sep-11 22:33N 43°32' E 007°02'0 0.0
2016-Sep-11 21:30N 43°32' E 007°02'0 0.0
2016-Sep-11 20:24N 43°32' E 007°02'0 0.0
2016-Sep-11 19:30N 43°32' E 007°02'0 0.0
2016-Sep-11 18:30N 43°32' E 007°02'0 0.0
2016-Sep-11 17:30N 43°32' E 007°02'0 0.0
2016-Sep-11 16:30N 43°32' E 007°02'0 0.0
2016-Sep-11 15:30N 43°32' E 007°02'0 0.0
2016-Sep-11 14:27N 43°32' E 007°02'0 0.0
2016-Sep-11 13:33N 43°32' E 007°02'0 0.0
2016-Sep-11 12:33N 43°32' E 007°02'0 0.0
2016-Sep-11 11:33N 43°32' E 007°02'0 0.0
2016-Sep-11 08:33N 43°32' E 007°02'0 0.0
2016-Sep-11 07:33N 43°32' E 007°02'0 0.0
2016-Sep-11 03:27N 43°32' E 007°02'0 0.0
2016-Sep-11 02:30N 43°32' E 007°02'0 0.0
2016-Sep-11 01:30N 43°32' E 007°02'0 0.0
2016-Sep-11 00:30N 43°32' E 007°02'0 0.0
2016-Sep-10 23:33N 43°32' E 007°02'0 0.0
2016-Sep-10 22:33N 43°32' E 007°02'0 0.0
2016-Sep-10 21:33N 43°32' E 007°02'0 0.0
2016-Sep-10 20:33N 43°32' E 007°02'0 0.0
2016-Sep-10 19:21N 43°32' E 007°02'0 0.0
2016-Sep-10 18:33N 43°32' E 007°02'0 0.0
2016-Sep-10 17:33N 43°32' E 007°02'0 0.0
2016-Sep-10 16:24N 43°32' E 007°02'0 0.0
2016-Sep-10 15:27N 43°32' E 007°02'0 0.0
2016-Sep-10 14:27N 43°32' E 007°02'0 0.0
2016-Sep-10 13:27N 43°32' E 007°02'0 0.0
2016-Sep-10 12:30N 43°32' E 007°02'0 0.0
2016-Sep-10 11:15N 43°32' E 007°02'0 0.0
2016-Sep-10 10:30N 43°32' E 007°02'0 0.0
2016-Sep-10 09:33N 43°32' E 007°02'0 0.0
2016-Sep-10 08:33N 43°32' E 007°02'0 0.0
2016-Sep-10 07:33N 43°32' E 007°02'0 0.0
2016-Sep-10 06:33N 43°32' E 007°02'0 0.0
2016-Sep-10 03:30N 43°32' E 007°02'0 0.0
2016-Sep-10 00:24N 43°32' E 007°02'0 0.0
2016-Sep-09 23:27N 43°32' E 007°02'0 0.0
2016-Sep-09 22:30N 43°32' E 007°02'0 0.0
2016-Sep-09 21:30N 43°32' E 007°02'0 0.0
2016-Sep-09 20:30N 43°32' E 007°02'0 0.0
2016-Sep-09 19:33N 43°32' E 007°02'0 0.0
2016-Sep-09 18:33N 43°32' E 007°02'0 0.0
2016-Sep-09 17:33N 43°32' E 007°02'0 0.0
2016-Sep-09 16:33N 43°32' E 007°02'0 0.0
2016-Sep-09 15:33N 43°32' E 007°02'0 0.0
2016-Sep-09 14:33N 43°32' E 007°02'0 0.0
2016-Sep-09 13:33N 43°32' E 007°02'0 0.0
2016-Sep-09 12:30N 43°32' E 007°02'  

Dump ship's entire track history